| time (UTC) | temp C | wind direction | speed KPH | gust KPH | rain 1hr cm | rain 24hr cm | rain mn cm | humidity % | barometer mb |
| 20260506033143 | 10 | 135 | 0.0 | 0.0 | 0.00 | 0.10 | 0.10 | 72 | 1012.0 |
| 20260506032122 | 10 | 158 | 0.0 | 0.0 | 0.00 | 0.10 | 0.10 | 74 | 1011.7 |
| 20260506031143 | 10 | 158 | 0.0 | 0.0 | 0.00 | 0.10 | 0.10 | 70 | 1011.7 |
| 20260506030122 | 10 | 113 | 0.0 | 0.0 | 0.00 | 0.10 | 0.10 | 68 | 1011.7 |
| 20260506025125 | 10 | 113 | 0.0 | 0.0 | 0.00 | 0.10 | 0.10 | 68 | 1011.7 |
| 20260506024123 | 10 | 113 | 0.0 | 0.0 | 0.00 | 0.13 | 0.10 | 68 | 1011.5 |
| 20260506023143 | 10 | 158 | 0.0 | 0.0 | 0.00 | 0.15 | 0.10 | 70 | 1011.7 |
| 20260506022121 | 10 | 270 | 0.0 | 0.0 | 0.00 | 0.20 | 0.10 | 65 | 1011.3 |
| 20260506021126 | 10 | 158 | 0.0 | 0.0 | 0.00 | 0.20 | 0.10 | 63 | 1011.0 |
| 20260506020121 | 10 | 180 | 0.0 | 0.0 | 0.00 | 0.20 | 0.10 | 64 | 1011.0 |
| 20260506015121 | 11 | 135 | 0.0 | 0.0 | 0.00 | 0.20 | 0.10 | 64 | 1010.7 |
| 20260506014125 | 11 | 180 | 0.0 | 0.0 | 0.00 | 0.20 | 0.10 | 63 | 1010.7 |
| 20260506013122 | 11 | 256 | 1.6 | 4.8 | 0.00 | 0.20 | 0.10 | 57 | 1010.8 |
| 20260506012143 | 11 | 278 | 3.2 | 4.8 | 0.00 | 0.20 | 0.10 | 57 | 1010.7 |
| 20260506011143 | 11 | 263 | 3.2 | 6.4 | 0.00 | 0.20 | 0.10 | 56 | 1010.5 |
| 20260506010122 | 11 | 260 | 1.6 | 4.8 | 0.00 | 0.20 | 0.10 | 56 | 1010.5 |
| 20260506005122 | 11 | 263 | 3.2 | 6.4 | 0.00 | 0.20 | 0.10 | 55 | 1010.3 |
| 20260506004123 | 11 | 272 | 3.2 | 6.4 | 0.00 | 0.20 | 0.10 | 55 | 1010.3 |
| 20260506003122 | 11 | 262 | 3.2 | 6.4 | 0.00 | 0.20 | 0.10 | 54 | 1010.2 |
| 20260506002122 | 12 | 265 | 3.2 | 8.0 | 0.00 | 0.20 | 0.10 | 54 | 1010.2 |
| 20260506001122 | 12 | 275 | 3.2 | 6.4 | 0.00 | 0.20 | 0.10 | 54 | 1010.0 |
| 20260506000143 | 12 | 255 | 3.2 | 6.4 | 0.00 | 0.20 | 0.10 | 53 | 1010.0 |
| 20260505235122 | 12 | 264 | 3.2 | 6.4 | 0.00 | 0.20 | 0.10 | 53 | 1010.0 |
| 20260505234122 | 12 | 263 | 3.2 | 8.0 | 0.00 | 0.20 | 0.10 | 53 | 1010.0 |
| 20260505233143 | 12 | 260 | 1.6 | 4.8 | 0.00 | 0.20 | 0.10 | 53 | 1010.2 |
| 20260505232146 | 12 | 256 | 4.8 | 8.0 | 0.00 | 0.20 | 0.10 | 53 | 1010.2 |
| 20260505231121 | 12 | 294 | 4.8 | 9.7 | 0.00 | 0.20 | 0.10 | 52 | 1010.2 |
| 20260505230122 | 12 | 260 | 3.2 | 6.4 | 0.00 | 0.20 | 0.10 | 54 | 1010.2 |
| 20260505225122 | 12 | 268 | 3.2 | 8.0 | 0.00 | 0.20 | 0.10 | 53 | 1010.2 |
| 20260505224122 | 12 | 256 | 3.2 | 8.0 | 0.00 | 0.20 | 0.10 | 52 | 1010.3 |
| 20260505223125 | 12 | 273 | 4.8 | 6.4 | 0.00 | 0.20 | 0.10 | 51 | 1010.3 |
| 20260505222122 | 12 | 86 | 3.2 | 8.0 | 0.00 | 0.20 | 0.10 | 52 | 1010.3 |
| 20260505221122 | 12 | 263 | 4.8 | 11.3 | 0.00 | 0.20 | 0.10 | 51 | 1010.4 |
| 20260505220122 | 12 | 279 | 4.8 | 8.0 | 0.00 | 0.20 | 0.10 | 51 | 1010.4 |
| 20260505215122 | 12 | 285 | 4.8 | 8.0 | 0.00 | 0.20 | 0.10 | 52 | 1010.4 |
| 20260505214122 | 12 | 269 | 4.8 | 11.3 | 0.00 | 0.20 | 0.10 | 52 | 1010.5 |
| 20260505213122 | 12 | 317 | 3.2 | 9.7 | 0.00 | 0.20 | 0.10 | 51 | 1010.4 |
| 20260505212122 | 12 | 255 | 4.8 | 8.0 | 0.00 | 0.20 | 0.10 | 50 | 1010.4 |
| 20260505211129 | 12 | 7 | 3.2 | 6.4 | 0.00 | 0.20 | 0.10 | 51 | 1010.5 |
| 20260505210122 | 12 | 267 | 4.8 | 9.7 | 0.00 | 0.20 | 0.10 | 53 | 1010.5 |
| 20260505205122 | 13 | 287 | 4.8 | 9.7 | 0.00 | 0.20 | 0.10 | 54 | 1010.8 |
| 20260505204122 | 13 | 279 | 4.8 | 8.0 | 0.00 | 0.20 | 0.10 | 58 | 1011.0 |
| 20260505203143 | 13 | 260 | 4.8 | 9.7 | 0.00 | 0.20 | 0.10 | 58 | 1011.0 |
| 20260505202122 | 12 | 224 | 1.6 | 6.4 | 0.00 | 0.20 | 0.10 | 64 | 1011.3 |
| 20260505201122 | 12 | 261 | 3.2 | 6.4 | 0.00 | 0.20 | 0.10 | 64 | 1011.3 |
| 20260505200123 | 12 | 256 | 3.2 | 6.4 | 0.00 | 0.20 | 0.10 | 63 | 1011.3 |
| 20260505195124 | 12 | 229 | 3.2 | 4.8 | 0.00 | 0.20 | 0.10 | 64 | 1011.7 |
| 20260505194122 | 12 | 231 | 1.6 | 4.8 | 0.00 | 0.20 | 0.10 | 64 | 1011.7 |
| 20260505193122 | 12 | 256 | 3.2 | 8.0 | 0.00 | 0.20 | 0.10 | 64 | 1011.7 |
| 20260505192145 | 11 | 250 | 4.8 | 8.0 | 0.00 | 0.20 | 0.10 | 64 | 1011.5 |
| 20260505191122 | 12 | 267 | 3.2 | 8.0 | 0.00 | 0.20 | 0.10 | 63 | 1011.7 |
| 20260505190122 | 11 | 261 | 3.2 | 6.4 | 0.00 | 0.20 | 0.10 | 64 | 1011.7 |
| 20260505185122 | 11 | 280 | 3.2 | 6.4 | 0.00 | 0.20 | 0.10 | 66 | 1011.7 |
| 20260505184122 | 11 | 275 | 3.2 | 6.4 | 0.00 | 0.20 | 0.10 | 61 | 1011.7 |
| 20260505183122 | 11 | 271 | 4.8 | 9.7 | 0.00 | 0.20 | 0.10 | 61 | 1011.7 |
| 20260505182122 | 11 | 265 | 3.2 | 8.0 | 0.00 | 0.20 | 0.10 | 59 | 1011.7 |
| 20260505181122 | 11 | 268 | 4.8 | 9.7 | 0.00 | 0.20 | 0.10 | 60 | 1011.9 |
| 20260505180128 | 11 | 279 | 3.2 | 6.4 | 0.00 | 0.20 | 0.10 | 61 | 1011.9 |
| 20260505180122 | 11 | 275 | 4.8 | 8.0 | 0.00 | 0.20 | 0.10 | 62 | 1011.9 |
| 20260505175123 | 12 | 257 | 3.2 | 8.0 | 0.00 | 0.20 | 0.10 | 61 | 1011.9 |
| 20260505174122 | 12 | 300 | 3.2 | 6.4 | 0.00 | 0.20 | 0.10 | 62 | 1011.8 |
| 20260505173122 | 11 | 219 | 3.2 | 9.7 | 0.00 | 0.20 | 0.10 | 61 | 1011.7 |
| 20260505172122 | 11 | 253 | 4.8 | 9.7 | 0.00 | 0.20 | 0.10 | 60 | 1011.7 |
| 20260505171122 | 11 | 291 | 4.8 | 6.4 | 0.00 | 0.20 | 0.10 | 61 | 1011.4 |
| 20260505170126 | 12 | 320 | 4.8 | 11.3 | 0.00 | 0.20 | 0.10 | 60 | 1011.4 |
| 20260505165122 | 12 | 12 | 6.4 | 12.9 | 0.00 | 0.20 | 0.10 | 57 | 1011.4 |
| 20260505164122 | 12 | 257 | 6.4 | 11.3 | 0.00 | 0.20 | 0.10 | 58 | 1011.2 |
| 20260505163122 | 11 | 261 | 6.4 | 11.3 | 0.00 | 0.20 | 0.10 | 63 | 1011.2 |
| 20260505162122 | 12 | 288 | 6.4 | 11.3 | 0.00 | 0.20 | 0.10 | 62 | 1011.2 |
| 20260505161122 | 12 | 276 | 4.8 | 8.0 | 0.00 | 0.20 | 0.10 | 66 | 1011.0 |
| 20260505160122 | 12 | 243 | 4.8 | 11.3 | 0.00 | 0.20 | 0.10 | 62 | 1011.0 |
| 20260505153122 | 11 | 283 | 4.8 | 11.3 | 0.00 | 0.20 | 0.10 | 73 | 1010.7 |
| 20260505152122 | 10 | 265 | 4.8 | 9.7 | 0.00 | 0.20 | 0.10 | 74 | 1010.4 |
| 20260505151122 | 10 | 334 | 6.4 | 9.7 | 0.00 | 0.20 | 0.10 | 74 | 1010.4 |
| 20260505150122 | 10 | 275 | 6.4 | 11.3 | 0.00 | 0.20 | 0.10 | 78 | 1010.4 |
| 20260505140122 | 8 | 72 | 3.2 | 6.4 | 0.00 | 0.20 | 0.10 | 90 | 1010.2 |
| 20260505130122 | 7 | 275 | 3.2 | 6.4 | 0.10 | 0.20 | 0.10 | 93 | 1010.3 |
| 20260505124122 | 7 | 252 | 6.4 | 9.7 | 0.08 | 0.18 | 0.08 | 90 | 1010.9 |
| 20260505123122 | 8 | 283 | 3.2 | 6.4 | 0.05 | 0.15 | 0.05 | 87 | 1011.2 |
| 20260505122143 | 8 | 268 | 6.4 | 12.9 | 0.00 | 0.10 | 0.00 | 82 | 1011.7 |
| 20260505121122 | 8 | 272 | 6.4 | 12.9 | 0.00 | 0.10 | 0.00 | 77 | 1011.7 |
| 20260505120143 | 10 | 277 | 6.4 | 11.3 | 0.00 | 0.10 | 0.00 | 71 | 1011.7 |
| 20260505115122 | 10 | 274 | 6.4 | 12.9 | 0.00 | 0.10 | 0.00 | 69 | 1011.5 |
| 20260505114122 | 10 | 264 | 6.4 | 9.7 | 0.00 | 0.10 | 0.00 | 68 | 1009.8 |
| 20260505113122 | 10 | 259 | 6.4 | 9.7 | 0.00 | 0.10 | 0.00 | 69 | 1009.0 |
| 20260505112122 | 9 | 308 | 4.8 | 8.0 | 0.00 | 0.10 | 0.00 | 72 | 1008.9 |
| 20260505111121 | 10 | 268 | 4.8 | 9.7 | 0.00 | 0.10 | 0.00 | 71 | 1009.2 |
| 20260505110121 | 10 | 268 | 4.8 | 12.9 | 0.00 | 0.10 | 0.00 | 69 | 1009.2 |
| 20260505102121 | 11 | 269 | 6.4 | 12.9 | 0.00 | 0.10 | 0.00 | 63 | 1008.8 |
| 20260505101121 | 11 | 257 | 4.8 | 9.7 | 0.00 | 0.10 | 0.00 | 63 | 1008.7 |
| 20260505100121 | 11 | 263 | 4.8 | 12.9 | 0.00 | 0.10 | 0.00 | 62 | 1008.7 |
| 20260505095121 | 11 | 279 | 4.8 | 8.0 | 0.00 | 0.10 | 0.00 | 63 | 1008.7 |
| 20260505094121 | 11 | 265 | 4.8 | 9.7 | 0.00 | 0.10 | 0.00 | 62 | 1008.2 |
| 20260505093121 | 11 | 288 | 6.4 | 9.7 | 0.00 | 0.10 | 0.00 | 61 | 1008.2 |
| 20260505092121 | 11 | 258 | 4.8 | 12.9 | 0.00 | 0.10 | 0.00 | 63 | 1008.5 |
| 20260505091142 | 11 | 263 | 4.8 | 8.0 | 0.00 | 0.10 | 0.00 | 64 | 1008.0 |
| 20260505090142 | 12 | 314 | 3.2 | 11.3 | 0.00 | 0.10 | 0.00 | 62 | 1008.0 |
| 20260505085142 | 12 | 261 | 3.2 | 8.0 | 0.00 | 0.10 | 0.00 | 62 | 1008.2 |
| 20260505084121 | 12 | 255 | 3.2 | 6.4 | 0.00 | 0.10 | 0.00 | 61 | 1007.9 |
| 20260505083121 | 12 | 271 | 3.2 | 8.0 | 0.00 | 0.10 | 0.00 | 60 | 1007.7 |
| 20260505082121 | 12 | 275 | 4.8 | 8.0 | 0.00 | 0.10 | 0.00 | 60 | 1007.7 |
| 20260505081142 | 12 | 262 | 8.0 | 11.3 | 0.00 | 0.10 | 0.00 | 59 | 1007.2 |
| 20260505080121 | 12 | 280 | 4.8 | 11.3 | 0.00 | 0.10 | 0.00 | 60 | 1007.2 |
| 20260505075121 | 12 | 278 | 3.2 | 9.7 | 0.00 | 0.10 | 0.00 | 60 | 1006.4 |
| 20260505074121 | 13 | 275 | 4.8 | 9.7 | 0.00 | 0.10 | 0.00 | 61 | 1006.2 |
| 20260505073121 | 13 | 252 | 4.8 | 8.0 | 0.00 | 0.10 | 0.00 | 61 | 1006.0 |
| 20260505072121 | 13 | 247 | 3.2 | 14.5 | 0.00 | 0.10 | 0.00 | 64 | 1005.8 |
| 20260505071142 | 13 | 277 | 3.2 | 8.0 | 0.00 | 0.10 | 0.00 | 63 | 1005.9 |
| 20260505070142 | 13 | 270 | 3.2 | 9.7 | 0.00 | 0.10 | 0.00 | 62 | 1005.9 |
| 20260505065121 | 13 | 264 | 3.2 | 11.3 | 0.00 | 0.10 | 0.00 | 64 | 1005.7 |
| 20260505064142 | 13 | 270 | 6.4 | 11.3 | 0.00 | 0.10 | 0.00 | 66 | 1005.7 |
| 20260505063121 | 13 | 258 | 4.8 | 11.3 | 0.00 | 0.10 | 0.00 | 68 | 1005.4 |
| 20260505062121 | 13 | 282 | 4.8 | 6.4 | 0.00 | 0.10 | 0.00 | 69 | 1005.2 |
| 20260505061121 | 13 | 255 | 4.8 | 6.4 | 0.00 | 0.10 | 0.00 | 72 | 1004.7 |
| 20260505060121 | 13 | 267 | 3.2 | 11.3 | 0.00 | 0.10 | 0.00 | 74 | 1004.7 |
| 20260505055121 | 14 | 270 | 4.8 | 8.0 | 0.00 | 0.10 | 0.00 | 80 | 1004.7 |
| 20260505054121 | 14 | 265 | 4.8 | 9.7 | 0.00 | 0.10 | 0.00 | 83 | 1004.8 |
| 20260505053121 | 14 | 269 | 3.2 | 6.4 | 0.00 | 0.10 | 0.00 | 83 | 1004.5 |
| 20260505052121 | 14 | 234 | 1.6 | 6.4 | 0.00 | 0.10 | 0.00 | 85 | 1004.2 |
| 20260505051121 | 14 | 302 | 1.6 | 8.0 | 0.00 | 0.10 | 0.00 | 86 | 1004.0 |
| 20260505050121 | 15 | 322 | 1.6 | 6.4 | 0.00 | 0.10 | 0.00 | 87 | 1004.0 |
| 20260505041121 | 16 | 248 | 3.2 | 6.4 | 0.00 | 0.10 | 0.10 | 89 | 1003.2 |
| 20260505040121 | 16 | 280 | 4.8 | 11.3 | 0.00 | 0.10 | 0.10 | 89 | 1003.2 |
| 20260505035142 | 16 | 299 | 4.8 | 9.7 | 0.00 | 0.10 | 0.10 | 89 | 1002.5 |
| 20260505034121 | 15 | 245 | 1.6 | 6.4 | 0.03 | 0.10 | 0.10 | 92 | 1002.2 |